sensor_id;sensor_type;location;lat;lon;timestamp;P1;durP1;ratioP1;P2;durP2;ratioP2
71166;SDS011;58864;45.928;20.078;2023-09-19T00:00:32;9.15;;;2.80;;
71166;SDS011;58864;45.928;20.078;2023-09-19T00:02:58;8.87;;;2.83;;
71166;SDS011;58864;45.928;20.078;2023-09-19T00:05:26;9.20;;;3.05;;
71166;SDS011;58864;45.928;20.078;2023-09-19T00:07:52;7.32;;;2.88;;
71166;SDS011;58864;45.928;20.078;2023-09-19T00:10:22;6.55;;;2.72;;
71166;SDS011;58864;45.928;20.078;2023-09-19T00:12:48;10.50;;;2.97;;
71166;SDS011;58864;45.928;20.078;2023-09-19T00:15:12;9.80;;;2.63;;
71166;SDS011;58864;45.928;20.078;2023-09-19T00:17:37;11.90;;;3.70;;
71166;SDS011;58864;45.928;20.078;2023-09-19T00:20:01;7.50;;;3.03;;
71166;SDS011;58864;45.928;20.078;2023-09-19T00:22:39;8.57;;;2.53;;
71166;SDS011;58864;45.928;20.078;2023-09-19T00:25:04;9.63;;;2.95;;
71166;SDS011;58864;45.928;20.078;2023-09-19T00:27:30;7.13;;;2.85;;
71166;SDS011;58864;45.928;20.078;2023-09-19T00:29:54;8.67;;;2.90;;
71166;SDS011;58864;45.928;20.078;2023-09-19T00:32:18;8.60;;;2.80;;
71166;SDS011;58864;45.928;20.078;2023-09-19T00:34:43;9.40;;;3.00;;
71166;SDS011;58864;45.928;20.078;2023-09-19T00:37:07;8.97;;;2.90;;
71166;SDS011;58864;45.928;20.078;2023-09-19T00:39:32;8.70;;;3.00;;
71166;SDS011;58864;45.928;20.078;2023-09-19T00:41:56;8.07;;;3.00;;
71166;SDS011;58864;45.928;20.078;2023-09-19T00:44:21;10.00;;;2.90;;
71166;SDS011;58864;45.928;20.078;2023-09-19T00:46:47;11.52;;;3.13;;
71166;SDS011;58864;45.928;20.078;2023-09-19T00:49:13;8.27;;;2.83;;
71166;SDS011;58864;45.928;20.078;2023-09-19T00:51:39;8.27;;;2.75;;
71166;SDS011;58864;45.928;20.078;2023-09-19T00:54:06;11.13;;;2.70;;
71166;SDS011;58864;45.928;20.078;2023-09-19T00:56:31;8.55;;;2.80;;
71166;SDS011;58864;45.928;20.078;2023-09-19T00:58:55;10.20;;;2.87;;
71166;SDS011;58864;45.928;20.078;2023-09-19T01:01:21;8.20;;;3.05;;
71166;SDS011;58864;45.928;20.078;2023-09-19T01:03:45;7.70;;;3.00;;
71166;SDS011;58864;45.928;20.078;2023-09-19T01:06:10;7.97;;;2.60;;
71166;SDS011;58864;45.928;20.078;2023-09-19T01:08:35;6.90;;;2.60;;
71166;SDS011;58864;45.928;20.078;2023-09-19T01:11:35;7.38;;;2.60;;
71166;SDS011;58864;45.928;20.078;2023-09-19T01:14:12;9.70;;;2.50;;
71166;SDS011;58864;45.928;20.078;2023-09-19T01:17:00;9.32;;;3.20;;
71166;SDS011;58864;45.928;20.078;2023-09-19T01:20:08;7.67;;;2.73;;
71166;SDS011;58864;45.928;20.078;2023-09-19T01:28:30;6.07;;;2.75;;
71166;SDS011;58864;45.928;20.078;2023-09-19T01:31:00;10.13;;;2.63;;
71166;SDS011;58864;45.928;20.078;2023-09-19T01:33:27;9.30;;;3.10;;
71166;SDS011;58864;45.928;20.078;2023-09-19T01:35:58;10.70;;;3.00;;
71166;SDS011;58864;45.928;20.078;2023-09-19T01:38:22;9.57;;;3.30;;
71166;SDS011;58864;45.928;20.078;2023-09-19T01:40:49;8.00;;;2.87;;
71166;SDS011;58864;45.928;20.078;2023-09-19T01:43:32;6.90;;;3.00;;
71166;SDS011;58864;45.928;20.078;2023-09-19T01:51:03;10.50;;;3.17;;
71166;SDS011;58864;45.928;20.078;2023-09-19T01:53:33;11.07;;;3.40;;
71166;SDS011;58864;45.928;20.078;2023-09-19T01:56:00;8.48;;;3.10;;
71166;SDS011;58864;45.928;20.078;2023-09-19T01:58:34;8.80;;;3.17;;
71166;SDS011;58864;45.928;20.078;2023-09-19T02:01:03;9.95;;;3.30;;
71166;SDS011;58864;45.928;20.078;2023-09-19T02:03:30;10.10;;;3.13;;
71166;SDS011;58864;45.928;20.078;2023-09-19T02:05:55;7.40;;;3.30;;
71166;SDS011;58864;45.928;20.078;2023-09-19T02:08:20;9.43;;;4.07;;
71166;SDS011;58864;45.928;20.078;2023-09-19T02:10:45;8.73;;;3.38;;
71166;SDS011;58864;45.928;20.078;2023-09-19T02:13:13;8.38;;;3.30;;
71166;SDS011;58864;45.928;20.078;2023-09-19T02:15:38;8.50;;;3.30;;
71166;SDS011;58864;45.928;20.078;2023-09-19T02:18:02;14.40;;;3.80;;
71166;SDS011;58864;45.928;20.078;2023-09-19T02:20:27;7.63;;;3.40;;
71166;SDS011;58864;45.928;20.078;2023-09-19T02:22:51;12.10;;;3.53;;
71166;SDS011;58864;45.928;20.078;2023-09-19T02:25:16;12.33;;;3.17;;
71166;SDS011;58864;45.928;20.078;2023-09-19T02:27:40;9.10;;;3.53;;
71166;SDS011;58864;45.928;20.078;2023-09-19T02:30:06;8.38;;;3.80;;
71166;SDS011;58864;45.928;20.078;2023-09-19T02:32:30;10.60;;;3.28;;
71166;SDS011;58864;45.928;20.078;2023-09-19T02:34:55;10.47;;;3.30;;
71166;SDS011;58864;45.928;20.078;2023-09-19T02:37:19;7.87;;;3.20;;
71166;SDS011;58864;45.928;20.078;2023-09-19T02:39:44;10.68;;;3.47;;
71166;SDS011;58864;45.928;20.078;2023-09-19T02:42:08;9.70;;;3.90;;
71166;SDS011;58864;45.928;20.078;2023-09-19T02:44:32;7.00;;;3.20;;
71166;SDS011;58864;45.928;20.078;2023-09-19T02:46:57;10.32;;;3.72;;
71166;SDS011;58864;45.928;20.078;2023-09-19T02:49:22;11.38;;;3.80;;
71166;SDS011;58864;45.928;20.078;2023-09-19T02:51:47;8.77;;;3.37;;
71166;SDS011;58864;45.928;20.078;2023-09-19T02:54:11;10.93;;;3.43;;
71166;SDS011;58864;45.928;20.078;2023-09-19T02:56:36;7.93;;;3.05;;
71166;SDS011;58864;45.928;20.078;2023-09-19T02:59:01;8.53;;;3.60;;
71166;SDS011;58864;45.928;20.078;2023-09-19T03:01:26;8.35;;;3.20;;
71166;SDS011;58864;45.928;20.078;2023-09-19T03:03:52;13.00;;;3.58;;
71166;SDS011;58864;45.928;20.078;2023-09-19T03:06:17;8.57;;;3.83;;
71166;SDS011;58864;45.928;20.078;2023-09-19T03:08:42;8.95;;;3.58;;
71166;SDS011;58864;45.928;20.078;2023-09-19T03:11:07;9.53;;;3.33;;
71166;SDS011;58864;45.928;20.078;2023-09-19T03:13:35;8.65;;;3.60;;
71166;SDS011;58864;45.928;20.078;2023-09-19T03:16:01;9.00;;;3.38;;
71166;SDS011;58864;45.928;20.078;2023-09-19T03:18:29;10.52;;;3.83;;
71166;SDS011;58864;45.928;20.078;2023-09-19T03:20:53;16.80;;;4.07;;
71166;SDS011;58864;45.928;20.078;2023-09-19T03:23:19;11.23;;;4.20;;
71166;SDS011;58864;45.928;20.078;2023-09-19T03:25:43;13.10;;;4.30;;
71166;SDS011;58864;45.928;20.078;2023-09-19T03:28:07;18.37;;;4.70;;
71166;SDS011;58864;45.928;20.078;2023-09-19T03:30:32;13.47;;;4.93;;
71166;SDS011;58864;45.928;20.078;2023-09-19T03:32:57;14.85;;;4.93;;
71166;SDS011;58864;45.928;20.078;2023-09-19T03:35:22;10.97;;;4.67;;
71166;SDS011;58864;45.928;20.078;2023-09-19T03:37:46;11.00;;;5.00;;
71166;SDS011;58864;45.928;20.078;2023-09-19T03:40:11;11.10;;;5.17;;
71166;SDS011;58864;45.928;20.078;2023-09-19T03:42:42;14.35;;;6.20;;
71166;SDS011;58864;45.928;20.078;2023-09-19T03:45:09;14.55;;;6.03;;
71166;SDS011;58864;45.928;20.078;2023-09-19T03:47:36;11.03;;;5.50;;
71166;SDS011;58864;45.928;20.078;2023-09-19T03:50:01;15.18;;;6.20;;
71166;SDS011;58864;45.928;20.078;2023-09-19T03:52:25;14.23;;;6.50;;
71166;SDS011;58864;45.928;20.078;2023-09-19T03:54:50;13.57;;;6.18;;
71166;SDS011;58864;45.928;20.078;2023-09-19T03:57:15;12.07;;;6.07;;
71166;SDS011;58864;45.928;20.078;2023-09-19T03:59:44;13.20;;;6.15;;
71166;SDS011;58864;45.928;20.078;2023-09-19T04:02:08;14.10;;;6.67;;
71166;SDS011;58864;45.928;20.078;2023-09-19T04:04:45;16.10;;;6.60;;
71166;SDS011;58864;45.928;20.078;2023-09-19T04:07:10;11.70;;;6.17;;
71166;SDS011;58864;45.928;20.078;2023-09-19T04:09:34;10.18;;;5.65;;
71166;SDS011;58864;45.928;20.078;2023-09-19T04:11:59;12.13;;;5.93;;
71166;SDS011;58864;45.928;20.078;2023-09-19T04:14:23;11.77;;;5.80;;
71166;SDS011;58864;45.928;20.078;2023-09-19T04:16:48;12.40;;;5.50;;
71166;SDS011;58864;45.928;20.078;2023-09-19T04:19:12;11.60;;;5.57;;
71166;SDS011;58864;45.928;20.078;2023-09-19T04:21:38;12.18;;;5.90;;
71166;SDS011;58864;45.928;20.078;2023-09-19T04:24:03;11.60;;;5.07;;
71166;SDS011;58864;45.928;20.078;2023-09-19T04:26:27;12.15;;;5.95;;
71166;SDS011;58864;45.928;20.078;2023-09-19T04:28:52;11.63;;;4.83;;
71166;SDS011;58864;45.928;20.078;2023-09-19T04:31:16;11.00;;;4.97;;
71166;SDS011;58864;45.928;20.078;2023-09-19T04:33:42;12.93;;;5.40;;
71166;SDS011;58864;45.928;20.078;2023-09-19T04:36:07;14.35;;;5.30;;
71166;SDS011;58864;45.928;20.078;2023-09-19T04:38:32;10.97;;;5.10;;
71166;SDS011;58864;45.928;20.078;2023-09-19T04:40:57;11.15;;;5.20;;
71166;SDS011;58864;45.928;20.078;2023-09-19T04:43:23;12.67;;;5.17;;
71166;SDS011;58864;45.928;20.078;2023-09-19T04:45:48;9.48;;;5.03;;
71166;SDS011;58864;45.928;20.078;2023-09-19T04:48:12;12.73;;;4.83;;
71166;SDS011;58864;45.928;20.078;2023-09-19T04:50:38;11.05;;;5.25;;
71166;SDS011;58864;45.928;20.078;2023-09-19T04:53:02;12.93;;;5.03;;
71166;SDS011;58864;45.928;20.078;2023-09-19T04:55:28;11.75;;;5.25;;
71166;SDS011;58864;45.928;20.078;2023-09-19T04:57:54;10.43;;;5.10;;
71166;SDS011;58864;45.928;20.078;2023-09-19T05:00:19;15.83;;;5.60;;
71166;SDS011;58864;45.928;20.078;2023-09-19T05:02:51;11.48;;;5.18;;
71166;SDS011;58864;45.928;20.078;2023-09-19T05:05:16;10.98;;;5.03;;
71166;SDS011;58864;45.928;20.078;2023-09-19T05:07:41;10.68;;;4.97;;
71166;SDS011;58864;45.928;20.078;2023-09-19T05:10:05;14.93;;;5.60;;
71166;SDS011;58864;45.928;20.078;2023-09-19T05:12:32;11.70;;;5.43;;
71166;SDS011;58864;45.928;20.078;2023-09-19T05:14:59;14.15;;;5.50;;
71166;SDS011;58864;45.928;20.078;2023-09-19T05:17:25;11.80;;;5.73;;
71166;SDS011;58864;45.928;20.078;2023-09-19T05:19:49;9.43;;;5.35;;
71166;SDS011;58864;45.928;20.078;2023-09-19T05:22:14;13.80;;;5.63;;
71166;SDS011;58864;45.928;20.078;2023-09-19T05:24:38;11.00;;;5.33;;
71166;SDS011;58864;45.928;20.078;2023-09-19T05:27:03;11.77;;;6.28;;
71166;SDS011;58864;45.928;20.078;2023-09-19T05:29:28;12.07;;;5.07;;
71166;SDS011;58864;45.928;20.078;2023-09-19T05:31:52;12.52;;;6.07;;
71166;SDS011;58864;45.928;20.078;2023-09-19T05:34:18;10.88;;;5.57;;
71166;SDS011;58864;45.928;20.078;2023-09-19T05:36:43;11.47;;;5.90;;
71166;SDS011;58864;45.928;20.078;2023-09-19T05:39:08;14.23;;;5.80;;
71166;SDS011;58864;45.928;20.078;2023-09-19T05:41:33;11.87;;;5.87;;
71166;SDS011;58864;45.928;20.078;2023-09-19T05:43:58;10.07;;;5.22;;
71166;SDS011;58864;45.928;20.078;2023-09-19T05:46:23;11.30;;;5.90;;
71166;SDS011;58864;45.928;20.078;2023-09-19T05:48:48;14.53;;;6.20;;
71166;SDS011;58864;45.928;20.078;2023-09-19T05:51:13;11.93;;;5.63;;
71166;SDS011;58864;45.928;20.078;2023-09-19T05:53:38;11.40;;;5.87;;
71166;SDS011;58864;45.928;20.078;2023-09-19T05:56:03;9.77;;;5.80;;
71166;SDS011;58864;45.928;20.078;2023-09-19T05:58:27;10.57;;;5.35;;
71166;SDS011;58864;45.928;20.078;2023-09-19T06:00:52;11.03;;;6.00;;
71166;SDS011;58864;45.928;20.078;2023-09-19T06:03:16;10.37;;;5.60;;
71166;SDS011;58864;45.928;20.078;2023-09-19T06:05:42;10.63;;;5.53;;
71166;SDS011;58864;45.928;20.078;2023-09-19T06:08:07;10.97;;;5.83;;
71166;SDS011;58864;45.928;20.078;2023-09-19T06:10:32;11.70;;;5.65;;
71166;SDS011;58864;45.928;20.078;2023-09-19T06:12:56;9.17;;;5.30;;
71166;SDS011;58864;45.928;20.078;2023-09-19T06:15:21;10.35;;;5.25;;
71166;SDS011;58864;45.928;20.078;2023-09-19T06:17:50;11.02;;;5.57;;
71166;SDS011;58864;45.928;20.078;2023-09-19T06:20:16;13.90;;;5.75;;
71166;SDS011;58864;45.928;20.078;2023-09-19T06:22:45;10.47;;;4.77;;
71166;SDS011;58864;45.928;20.078;2023-09-19T06:25:10;9.05;;;4.40;;
71166;SDS011;58864;45.928;20.078;2023-09-19T06:27:35;8.82;;;4.57;;
71166;SDS011;58864;45.928;20.078;2023-09-19T06:30:00;9.23;;;4.83;;
71166;SDS011;58864;45.928;20.078;2023-09-19T06:32:28;12.10;;;4.65;;
71166;SDS011;58864;45.928;20.078;2023-09-19T06:34:53;12.75;;;5.00;;
71166;SDS011;58864;45.928;20.078;2023-09-19T06:37:22;17.05;;;6.30;;
71166;SDS011;58864;45.928;20.078;2023-09-19T06:39:46;14.90;;;4.93;;
71166;SDS011;58864;45.928;20.078;2023-09-19T06:42:13;8.60;;;4.50;;
71166;SDS011;58864;45.928;20.078;2023-09-19T06:44:38;9.93;;;5.20;;
71166;SDS011;58864;45.928;20.078;2023-09-19T06:47:03;8.90;;;4.72;;
71166;SDS011;58864;45.928;20.078;2023-09-19T06:49:28;8.35;;;4.80;;
71166;SDS011;58864;45.928;20.078;2023-09-19T06:51:54;8.20;;;4.50;;
71166;SDS011;58864;45.928;20.078;2023-09-19T06:54:19;10.15;;;4.60;;
71166;SDS011;58864;45.928;20.078;2023-09-19T06:56:43;9.07;;;5.13;;
71166;SDS011;58864;45.928;20.078;2023-09-19T06:59:08;11.20;;;5.00;;
71166;SDS011;58864;45.928;20.078;2023-09-19T07:01:32;10.35;;;4.70;;
71166;SDS011;58864;45.928;20.078;2023-09-19T07:03:57;11.23;;;5.43;;
71166;SDS011;58864;45.928;20.078;2023-09-19T07:06:22;9.17;;;4.87;;
71166;SDS011;58864;45.928;20.078;2023-09-19T07:08:46;11.17;;;4.90;;
71166;SDS011;58864;45.928;20.078;2023-09-19T07:11:11;9.63;;;4.80;;
71166;SDS011;58864;45.928;20.078;2023-09-19T07:13:36;11.10;;;4.60;;
71166;SDS011;58864;45.928;20.078;2023-09-19T07:16:00;15.07;;;4.97;;
71166;SDS011;58864;45.928;20.078;2023-09-19T07:18:25;12.13;;;4.63;;
71166;SDS011;58864;45.928;20.078;2023-09-19T07:20:49;10.13;;;4.77;;
71166;SDS011;58864;45.928;20.078;2023-09-19T07:23:23;10.83;;;4.73;;
71166;SDS011;58864;45.928;20.078;2023-09-19T07:25:50;12.18;;;4.88;;
71166;SDS011;58864;45.928;20.078;2023-09-19T07:28:14;11.13;;;4.90;;
71166;SDS011;58864;45.928;20.078;2023-09-19T07:30:39;11.60;;;4.83;;
71166;SDS011;58864;45.928;20.078;2023-09-19T07:33:05;10.02;;;4.65;;
71166;SDS011;58864;45.928;20.078;2023-09-19T07:35:29;8.57;;;4.40;;
71166;SDS011;58864;45.928;20.078;2023-09-19T07:37:54;14.50;;;4.87;;
71166;SDS011;58864;45.928;20.078;2023-09-19T07:40:20;13.73;;;4.78;;
71166;SDS011;58864;45.928;20.078;2023-09-19T07:42:44;10.13;;;4.67;;
71166;SDS011;58864;45.928;20.078;2023-09-19T07:45:10;8.73;;;4.65;;
71166;SDS011;58864;45.928;20.078;2023-09-19T07:47:38;9.18;;;4.47;;
71166;SDS011;58864;45.928;20.078;2023-09-19T07:50:03;9.60;;;4.70;;
71166;SDS011;58864;45.928;20.078;2023-09-19T07:52:28;9.20;;;4.63;;
71166;SDS011;58864;45.928;20.078;2023-09-19T07:54:53;12.70;;;4.75;;
71166;SDS011;58864;45.928;20.078;2023-09-19T07:57:18;9.07;;;4.40;;
71166;SDS011;58864;45.928;20.078;2023-09-19T07:59:42;10.00;;;5.20;;
71166;SDS011;58864;45.928;20.078;2023-09-19T08:02:07;11.65;;;4.72;;
71166;SDS011;58864;45.928;20.078;2023-09-19T08:04:33;10.10;;;4.70;;
71166;SDS011;58864;45.928;20.078;2023-09-19T08:06:58;11.50;;;4.50;;
71166;SDS011;58864;45.928;20.078;2023-09-19T08:09:23;9.43;;;5.22;;
71166;SDS011;58864;45.928;20.078;2023-09-19T08:11:47;10.67;;;4.40;;
71166;SDS011;58864;45.928;20.078;2023-09-19T08:14:12;11.77;;;4.60;;
71166;SDS011;58864;45.928;20.078;2023-09-19T08:16:38;9.90;;;4.60;;
71166;SDS011;58864;45.928;20.078;2023-09-19T08:19:02;10.03;;;4.53;;
71166;SDS011;58864;45.928;20.078;2023-09-19T08:21:27;8.17;;;4.57;;
71166;SDS011;58864;45.928;20.078;2023-09-19T08:23:53;9.93;;;5.07;;
71166;SDS011;58864;45.928;20.078;2023-09-19T08:26:18;9.83;;;4.50;;
71166;SDS011;58864;45.928;20.078;2023-09-19T08:28:43;10.32;;;4.28;;
71166;SDS011;58864;45.928;20.078;2023-09-19T08:31:08;12.00;;;4.47;;
71166;SDS011;58864;45.928;20.078;2023-09-19T08:33:33;9.80;;;4.73;;
71166;SDS011;58864;45.928;20.078;2023-09-19T08:35:57;12.77;;;5.25;;
71166;SDS011;58864;45.928;20.078;2023-09-19T08:38:22;14.03;;;4.40;;
71166;SDS011;58864;45.928;20.078;2023-09-19T08:40:46;10.50;;;5.13;;
71166;SDS011;58864;45.928;20.078;2023-09-19T08:43:11;14.25;;;4.82;;
71166;SDS011;58864;45.928;20.078;2023-09-19T08:45:35;10.33;;;4.70;;
71166;SDS011;58864;45.928;20.078;2023-09-19T08:50:38;9.20;;;4.93;;
71166;SDS011;58864;45.928;20.078;2023-09-19T08:53:10;10.00;;;4.83;;
71166;SDS011;58864;45.928;20.078;2023-09-19T08:55:36;8.70;;;4.50;;
71166;SDS011;58864;45.928;20.078;2023-09-19T08:58:03;8.80;;;4.60;;
71166;SDS011;58864;45.928;20.078;2023-09-19T09:00:31;10.50;;;4.72;;
71166;SDS011;58864;45.928;20.078;2023-09-19T09:02:56;10.70;;;4.93;;
71166;SDS011;58864;45.928;20.078;2023-09-19T09:05:22;10.63;;;4.70;;
71166;SDS011;58864;45.928;20.078;2023-09-19T09:07:47;14.82;;;4.80;;
71166;SDS011;58864;45.928;20.078;2023-09-19T09:10:15;7.47;;;4.27;;
71166;SDS011;58864;45.928;20.078;2023-09-19T09:12:40;12.63;;;4.55;;
71166;SDS011;58864;45.928;20.078;2023-09-19T09:15:05;13.15;;;4.57;;
71166;SDS011;58864;45.928;20.078;2023-09-19T09:17:32;10.35;;;4.38;;
71166;SDS011;58864;45.928;20.078;2023-09-19T09:19:57;9.47;;;4.90;;
71166;SDS011;58864;45.928;20.078;2023-09-19T09:22:21;10.07;;;4.40;;
71166;SDS011;58864;45.928;20.078;2023-09-19T09:24:55;9.18;;;4.78;;
71166;SDS011;58864;45.928;20.078;2023-09-19T09:27:28;10.32;;;4.40;;
71166;SDS011;58864;45.928;20.078;2023-09-19T09:29:53;9.83;;;4.57;;
71166;SDS011;58864;45.928;20.078;2023-09-19T09:32:24;11.00;;;4.40;;
71166;SDS011;58864;45.928;20.078;2023-09-19T09:34:53;10.52;;;4.68;;
71166;SDS011;58864;45.928;20.078;2023-09-19T09:37:19;10.13;;;4.47;;
71166;SDS011;58864;45.928;20.078;2023-09-19T09:39:56;9.23;;;4.18;;
71166;SDS011;58864;45.928;20.078;2023-09-19T09:42:35;15.60;;;4.63;;
71166;SDS011;58864;45.928;20.078;2023-09-19T09:47:47;21.15;;;5.88;;
71166;SDS011;58864;45.928;20.078;2023-09-19T09:50:28;15.63;;;5.55;;
71166;SDS011;58864;45.928;20.078;2023-09-19T09:53:19;15.73;;;5.72;;
71166;SDS011;58864;45.928;20.078;2023-09-19T09:58:33;18.20;;;5.50;;
71166;SDS011;58864;45.928;20.078;2023-09-19T10:00:59;13.57;;;5.78;;
71166;SDS011;58864;45.928;20.078;2023-09-19T10:03:33;13.98;;;5.10;;
71166;SDS011;58864;45.928;20.078;2023-09-19T10:06:03;13.40;;;4.63;;
71166;SDS011;58864;45.928;20.078;2023-09-19T10:08:56;17.90;;;5.47;;
71166;SDS011;58864;45.928;20.078;2023-09-19T10:12:05;11.65;;;4.18;;
71166;SDS011;58864;45.928;20.078;2023-09-19T10:14:33;12.75;;;3.28;;
71166;SDS011;58864;45.928;20.078;2023-09-19T10:16:59;10.32;;;3.47;;
71166;SDS011;58864;45.928;20.078;2023-09-19T10:19:37;16.35;;;2.97;;
71166;SDS011;58864;45.928;20.078;2023-09-19T10:22:13;10.50;;;3.17;;
71166;SDS011;58864;45.928;20.078;2023-09-19T10:24:44;8.48;;;2.83;;
71166;SDS011;58864;45.928;20.078;2023-09-19T10:27:10;9.00;;;2.55;;
71166;SDS011;58864;45.928;20.078;2023-09-19T10:29:35;9.53;;;2.27;;
71166;SDS011;58864;45.928;20.078;2023-09-19T10:32:00;9.00;;;1.90;;
71166;SDS011;58864;45.928;20.078;2023-09-19T10:34:28;11.27;;;1.98;;
71166;SDS011;58864;45.928;20.078;2023-09-19T10:36:54;8.45;;;1.77;;
71166;SDS011;58864;45.928;20.078;2023-09-19T10:39:19;12.83;;;1.43;;
71166;SDS011;58864;45.928;20.078;2023-09-19T10:41:44;10.43;;;1.98;;
71166;SDS011;58864;45.928;20.078;2023-09-19T10:44:17;9.02;;;1.90;;
71166;SDS011;58864;45.928;20.078;2023-09-19T10:46:45;9.33;;;1.40;;
71166;SDS011;58864;45.928;20.078;2023-09-19T10:49:10;7.28;;;1.65;;
71166;SDS011;58864;45.928;20.078;2023-09-19T10:51:39;5.77;;;1.37;;
71166;SDS011;58864;45.928;20.078;2023-09-19T10:54:06;4.93;;;1.13;;
71166;SDS011;58864;45.928;20.078;2023-09-19T10:56:37;5.85;;;1.40;;
71166;SDS011;58864;45.928;20.078;2023-09-19T10:59:09;8.70;;;1.25;;
71166;SDS011;58864;45.928;20.078;2023-09-19T11:01:44;6.70;;;1.42;;
71166;SDS011;58864;45.928;20.078;2023-09-19T11:07:05;4.88;;;0.90;;
71166;SDS011;58864;45.928;20.078;2023-09-19T11:09:45;6.03;;;0.90;;
71166;SDS011;58864;45.928;20.078;2023-09-19T11:12:10;5.53;;;1.02;;
71166;SDS011;58864;45.928;20.078;2023-09-19T11:14:38;4.87;;;1.10;;
71166;SDS011;58864;45.928;20.078;2023-09-19T11:20:16;8.20;;;0.90;;
71166;SDS011;58864;45.928;20.078;2023-09-19T11:30:29;6.43;;;0.70;;
71166;SDS011;58864;45.928;20.078;2023-09-19T11:33:15;4.28;;;0.65;;
71166;SDS011;58864;45.928;20.078;2023-09-19T11:36:05;4.72;;;0.90;;
71166;SDS011;58864;45.928;20.078;2023-09-19T11:39:07;4.82;;;0.80;;
71166;SDS011;58864;45.928;20.078;2023-09-19T11:46:31;5.20;;;0.70;;
71166;SDS011;58864;45.928;20.078;2023-09-19T11:49:07;5.75;;;1.20;;
71166;SDS011;58864;45.928;20.078;2023-09-19T11:51:40;5.03;;;0.68;;
71166;SDS011;58864;45.928;20.078;2023-09-19T11:54:10;3.37;;;0.70;;
71166;SDS011;58864;45.928;20.078;2023-09-19T11:56:41;4.85;;;0.80;;
71166;SDS011;58864;45.928;20.078;2023-09-19T11:59:06;4.88;;;0.63;;
71166;SDS011;58864;45.928;20.078;2023-09-19T12:01:35;4.43;;;0.70;;
71166;SDS011;58864;45.928;20.078;2023-09-19T12:04:04;3.97;;;0.80;;
71166;SDS011;58864;45.928;20.078;2023-09-19T12:06:31;9.23;;;0.90;;
71166;SDS011;58864;45.928;20.078;2023-09-19T12:08:59;5.43;;;0.90;;
71166;SDS011;58864;45.928;20.078;2023-09-19T12:11:30;3.58;;;0.50;;
71166;SDS011;58864;45.928;20.078;2023-09-19T12:13:59;3.80;;;0.70;;
71166;SDS011;58864;45.928;20.078;2023-09-19T12:16:27;7.80;;;0.70;;
71166;SDS011;58864;45.928;20.078;2023-09-19T12:18:55;5.40;;;0.87;;
71166;SDS011;58864;45.928;20.078;2023-09-19T12:21:21;3.55;;;0.70;;
71166;SDS011;58864;45.928;20.078;2023-09-19T12:24:14;5.63;;;0.70;;
71166;SDS011;58864;45.928;20.078;2023-09-19T12:26:41;3.45;;;0.68;;
71166;SDS011;58864;45.928;20.078;2023-09-19T12:29:11;5.95;;;1.15;;
71166;SDS011;58864;45.928;20.078;2023-09-19T12:31:48;4.83;;;0.87;;
71166;SDS011;58864;45.928;20.078;2023-09-19T12:34:22;4.70;;;0.68;;
71166;SDS011;58864;45.928;20.078;2023-09-19T12:37:12;4.05;;;0.70;;
71166;SDS011;58864;45.928;20.078;2023-09-19T12:39:40;3.65;;;0.65;;
71166;SDS011;58864;45.928;20.078;2023-09-19T12:42:12;4.32;;;0.70;;
71166;SDS011;58864;45.928;20.078;2023-09-19T12:44:38;4.10;;;0.97;;
71166;SDS011;58864;45.928;20.078;2023-09-19T12:49:35;3.83;;;0.60;;
71166;SDS011;58864;45.928;20.078;2023-09-19T12:51:59;4.53;;;0.70;;
71166;SDS011;58864;45.928;20.078;2023-09-19T12:54:24;4.68;;;0.60;;
71166;SDS011;58864;45.928;20.078;2023-09-19T12:56:49;4.07;;;0.50;;
71166;SDS011;58864;45.928;20.078;2023-09-19T12:59:15;3.73;;;0.77;;
71166;SDS011;58864;45.928;20.078;2023-09-19T13:01:40;2.53;;;0.50;;
71166;SDS011;58864;45.928;20.078;2023-09-19T13:04:14;2.83;;;0.50;;
71166;SDS011;58864;45.928;20.078;2023-09-19T13:06:50;4.10;;;0.70;;
71166;SDS011;58864;45.928;20.078;2023-09-19T13:09:15;4.73;;;0.80;;
71166;SDS011;58864;45.928;20.078;2023-09-19T13:11:41;3.42;;;0.50;;
71166;SDS011;58864;45.928;20.078;2023-09-19T13:14:15;3.03;;;0.60;;
71166;SDS011;58864;45.928;20.078;2023-09-19T13:19:36;2.97;;;0.53;;
71166;SDS011;58864;45.928;20.078;2023-09-19T13:22:04;4.45;;;0.60;;
71166;SDS011;58864;45.928;20.078;2023-09-19T13:24:28;3.72;;;0.55;;
71166;SDS011;58864;45.928;20.078;2023-09-19T13:26:54;2.33;;;0.40;;
71166;SDS011;58864;45.928;20.078;2023-09-19T13:29:19;2.80;;;0.60;;
71166;SDS011;58864;45.928;20.078;2023-09-19T13:31:49;3.00;;;0.57;;
71166;SDS011;58864;45.928;20.078;2023-09-19T13:34:15;3.45;;;0.52;;
71166;SDS011;58864;45.928;20.078;2023-09-19T13:36:41;3.93;;;0.67;;
71166;SDS011;58864;45.928;20.078;2023-09-19T13:39:06;3.17;;;0.60;;
71166;SDS011;58864;45.928;20.078;2023-09-19T13:41:33;4.13;;;0.60;;
71166;SDS011;58864;45.928;20.078;2023-09-19T13:43:57;3.30;;;0.50;;
71166;SDS011;58864;45.928;20.078;2023-09-19T13:46:22;4.35;;;0.73;;
71166;SDS011;58864;45.928;20.078;2023-09-19T13:48:50;2.00;;;0.50;;
71166;SDS011;58864;45.928;20.078;2023-09-19T13:51:18;2.65;;;0.60;;
71166;SDS011;58864;45.928;20.078;2023-09-19T13:53:43;4.37;;;0.57;;
71166;SDS011;58864;45.928;20.078;2023-09-19T13:56:07;2.50;;;0.60;;
71166;SDS011;58864;45.928;20.078;2023-09-19T13:58:32;3.65;;;0.70;;
71166;SDS011;58864;45.928;20.078;2023-09-19T14:00:57;3.17;;;0.50;;
71166;SDS011;58864;45.928;20.078;2023-09-19T14:03:22;4.37;;;0.73;;
71166;SDS011;58864;45.928;20.078;2023-09-19T14:05:48;2.90;;;0.57;;
71166;SDS011;58864;45.928;20.078;2023-09-19T14:08:15;2.78;;;0.50;;
71166;SDS011;58864;45.928;20.078;2023-09-19T14:10:39;3.37;;;0.80;;
71166;SDS011;58864;45.928;20.078;2023-09-19T14:13:04;3.63;;;0.70;;
71166;SDS011;58864;45.928;20.078;2023-09-19T14:15:28;2.50;;;0.50;;
71166;SDS011;58864;45.928;20.078;2023-09-19T14:17:59;5.55;;;0.60;;
71166;SDS011;58864;45.928;20.078;2023-09-19T14:20:25;2.87;;;0.50;;
71166;SDS011;58864;45.928;20.078;2023-09-19T14:22:50;3.42;;;0.50;;
71166;SDS011;58864;45.928;20.078;2023-09-19T14:25:15;3.23;;;0.40;;
71166;SDS011;58864;45.928;20.078;2023-09-19T14:27:39;2.70;;;0.50;;
71166;SDS011;58864;45.928;20.078;2023-09-19T14:30:04;2.60;;;0.50;;
71166;SDS011;58864;45.928;20.078;2023-09-19T14:32:29;2.80;;;0.47;;
71166;SDS011;58864;45.928;20.078;2023-09-19T14:34:54;2.13;;;0.50;;
71166;SDS011;58864;45.928;20.078;2023-09-19T14:37:18;3.00;;;0.60;;
71166;SDS011;58864;45.928;20.078;2023-09-19T14:39:45;3.90;;;0.60;;
71166;SDS011;58864;45.928;20.078;2023-09-19T14:42:09;2.43;;;0.60;;
71166;SDS011;58864;45.928;20.078;2023-09-19T14:44:34;2.40;;;0.50;;
71166;SDS011;58864;45.928;20.078;2023-09-19T14:46:59;5.53;;;0.80;;
71166;SDS011;58864;45.928;20.078;2023-09-19T14:49:24;4.70;;;0.70;;
71166;SDS011;58864;45.928;20.078;2023-09-19T14:51:49;3.25;;;0.50;;
71166;SDS011;58864;45.928;20.078;2023-09-19T14:54:14;2.90;;;0.50;;
71166;SDS011;58864;45.928;20.078;2023-09-19T14:56:40;3.15;;;0.60;;
71166;SDS011;58864;45.928;20.078;2023-09-19T14:59:05;5.10;;;0.60;;
71166;SDS011;58864;45.928;20.078;2023-09-19T15:01:30;3.97;;;0.52;;
71166;SDS011;58864;45.928;20.078;2023-09-19T15:03:56;2.20;;;0.40;;
71166;SDS011;58864;45.928;20.078;2023-09-19T15:06:21;3.85;;;0.50;;
71166;SDS011;58864;45.928;20.078;2023-09-19T15:08:46;3.80;;;0.50;;
71166;SDS011;58864;45.928;20.078;2023-09-19T15:11:11;3.22;;;0.50;;